Time;durP1;ratioP1;P1;durP2;ratioP2;P2;SDS_P1;SDS_P2;PMS_P1;PMS_P2;Temp;Humidity;BMP_temperature;BMP_pressure;BME280_temperature;BME280_humidity;BME280_pressure;Samples;Min_cycle;Max_cycle;Signal;HPM_P1;HPM_P2
2021/12/06 00:02:13;;;;;;;;;;;20.90;99.90;;;;;;5069027;28;19966;-72
2021/12/06 00:04:40;;;;;;;;;;;21.10;99.90;;;;;;5070490;28;20046;-73
2021/12/06 00:07:10;;;;;;;;;;;21.20;99.90;;;;;;5070559;28;19912;-73
2021/12/06 00:09:37;;;;;;;;;;;21.40;99.90;;;;;;5069140;28;20017;-71
2021/12/06 00:12:04;;;;;;;;;;;21.40;99.90;;;;;;5070244;28;20274;-72
2021/12/06 00:14:33;;;;;;;;;;;21.20;99.90;;;;;;5069997;28;19925;-71
2021/12/06 00:17:02;;;;;;;;;;;21.10;99.90;;;;;;5070616;28;19996;-71
2021/12/06 00:19:29;;;;;;;;;;;20.90;99.90;;;;;;5070274;28;19912;-72
2021/12/06 00:21:56;;;;;;;;;;;20.90;99.90;;;;;;5070583;28;19912;-73
2021/12/06 00:24:22;;;;;;;;;;;20.90;99.90;;;;;;5072170;28;19961;-72
2021/12/06 00:26:49;;;;;;;;;;;20.80;99.90;;;;;;5074087;28;20355;-73
2021/12/06 00:29:17;;;;;;;;;;;20.80;99.90;;;;;;5071781;28;19921;-73
2021/12/06 00:31:44;;;;;;;;;;;20.70;99.90;;;;;;5074193;28;19916;-74
2021/12/06 00:34:15;;;;;;;;;;;20.60;99.90;;;;;;5073334;28;19924;-73
2021/12/06 00:36:52;;;;;;;;;;;20.50;99.90;;;;;;5074208;28;19956;-72
2021/12/06 00:39:19;;;;;;;;;;;20.50;99.90;;;;;;5073373;28;19927;-72
2021/12/06 00:41:46;;;;;;;;;;;20.50;99.90;;;;;;5073506;28;19919;-73
2021/12/06 00:44:13;;;;;;;;;;;20.50;99.90;;;;;;5073409;28;19923;-72
2021/12/06 00:46:40;;;;;;;;;;;20.60;99.90;;;;;;5073893;28;19913;-73
2021/12/06 00:49:07;;;;;;;;;;;20.60;99.90;;;;;;5073339;28;19965;-72
2021/12/06 00:51:34;;;;;;;;;;;20.60;99.90;;;;;;5073778;28;20279;-73
2021/12/06 00:54:01;;;;;;;;;;;20.60;99.90;;;;;;5073040;28;19921;-73
2021/12/06 00:56:27;;;;;;;;;;;20.50;99.90;;;;;;5061232;28;19920;-72
2021/12/06 00:58:54;;;;;;;;;;;20.40;99.90;;;;;;5073175;28;19916;-73
2021/12/06 01:01:21;;;;;;;;;;;20.40;99.90;;;;;;5073257;28;20029;-72
2021/12/06 01:03:48;;;;;;;;;;;20.50;99.90;;;;;;5073507;28;20359;-72
2021/12/06 01:06:14;;;;;;;;;;;20.60;99.90;;;;;;5073046;28;19985;-72
2021/12/06 01:08:41;;;;;;;;;;;20.70;99.90;;;;;;5073511;28;19973;-72
2021/12/06 01:11:09;;;;;;;;;;;20.90;99.90;;;;;;5072813;28;19937;-73
2021/12/06 01:13:36;;;;;;;;;;;20.90;99.90;;;;;;5073399;28;19951;-72
2021/12/06 01:16:03;;;;;;;;;;;20.90;99.90;;;;;;5072828;28;20002;-72
2021/12/06 01:18:30;;;;;;;;;;;20.80;99.90;;;;;;5073482;28;20118;-73
2021/12/06 01:21:14;;;;;;;;;;;20.80;99.90;;;;;;5073061;28;19924;-72
2021/12/06 01:24:02;;;;;;;;;;;21.00;99.90;;;;;;5073364;28;19916;-72
2021/12/06 01:30:05;;;;;;;;;;;21.20;99.90;;;;;;5073015;28;19943;-72
2021/12/06 01:40:22;;;;;;;;;;;21.60;99.90;;;;;;5051100;28;19923;-71
2021/12/06 01:42:49;;;;;;;;;;;21.70;99.90;;;;;;5055846;28;19959;-72
2021/12/06 01:45:15;;;;;;;;;;;21.90;99.90;;;;;;5073257;28;20275;-72
2021/12/06 01:47:42;;;;;;;;;;;21.90;99.90;;;;;;5072575;28;20333;-72
2021/12/06 01:50:09;;;;;;;;;;;21.80;99.90;;;;;;5072689;28;20303;-73
2021/12/06 01:52:37;;;;;;;;;;;21.70;99.90;;;;;;5072666;28;20291;-73
2021/12/06 01:55:09;;;;;;;;;;;21.60;99.90;;;;;;5072904;28;19963;-72
2021/12/06 01:57:35;;;;;;;;;;;21.60;99.90;;;;;;5077222;28;20325;-72
2021/12/06 02:00:07;;;;;;;;;;;21.60;99.90;;;;;;5065845;28;19921;-72
2021/12/06 02:02:34;;;;;;;;;;;21.50;99.90;;;;;;5067976;28;20313;-72
2021/12/06 02:05:00;;;;;;;;;;;21.40;99.90;;;;;;5072690;28;19959;-71
2021/12/06 02:07:28;;;;;;;;;;;21.40;99.90;;;;;;5071987;28;20351;-72
2021/12/06 02:09:56;;;;;;;;;;;21.20;99.90;;;;;;5071897;28;20015;-72
2021/12/06 02:12:27;;;;;;;;;;;21.10;99.90;;;;;;5060173;28;20318;-73
2021/12/06 02:15:05;;;;;;;;;;;20.90;99.90;;;;;;5072068;28;19932;-75
2021/12/06 02:17:42;;;;;;;;;;;20.90;99.90;;;;;;5072178;28;20003;-73
2021/12/06 02:20:13;;;;;;;;;;;20.90;99.90;;;;;;5061413;28;19913;-74
2021/12/06 02:22:40;;;;;;;;;;;20.80;99.90;;;;;;5071816;28;19913;-73
2021/12/06 02:25:09;;;;;;;;;;;20.70;99.90;;;;;;5072090;28;19916;-72
2021/12/06 02:27:36;;;;;;;;;;;20.70;99.90;;;;;;5060508;28;19989;-73
2021/12/06 02:30:04;;;;;;;;;;;20.70;99.90;;;;;;5060036;28;20019;-72
2021/12/06 02:32:31;;;;;;;;;;;20.80;99.90;;;;;;5059778;28;20279;-72
2021/12/06 02:34:58;;;;;;;;;;;20.80;99.90;;;;;;5059777;28;20291;-72
2021/12/06 02:37:27;;;;;;;;;;;20.80;99.90;;;;;;5071273;28;19916;-73
2021/12/06 02:39:54;;;;;;;;;;;20.90;99.90;;;;;;5071140;28;20389;-76
2021/12/06 02:42:22;;;;;;;;;;;20.90;99.90;;;;;;5071761;28;19916;-74
2021/12/06 02:44:49;;;;;;;;;;;20.90;99.90;;;;;;5071540;28;19935;-74
2021/12/06 02:47:17;;;;;;;;;;;21.00;99.90;;;;;;5071199;28;20283;-72
2021/12/06 02:49:44;;;;;;;;;;;20.90;99.90;;;;;;5071257;28;20426;-72
2021/12/06 02:52:11;;;;;;;;;;;20.90;99.90;;;;;;5071595;28;20275;-72
2021/12/06 02:54:39;;;;;;;;;;;20.90;99.90;;;;;;5071106;28;20399;-73
2021/12/06 02:59:42;;;;;;;;;;;20.80;99.90;;;;;;5071216;28;20018;-72
2021/12/06 03:02:11;;;;;;;;;;;20.80;99.90;;;;;;5071426;28;19912;-72
2021/12/06 03:04:38;;;;;;;;;;;20.90;99.90;;;;;;5071170;28;19921;-76
2021/12/06 03:07:05;;;;;;;;;;;20.90;99.90;;;;;;5071826;28;19966;-73
2021/12/06 03:09:35;;;;;;;;;;;20.90;99.90;;;;;;5071253;28;19928;-71
2021/12/06 03:12:13;;;;;;;;;;;20.80;99.90;;;;;;5071367;28;19919;-73
2021/12/06 03:14:41;;;;;;;;;;;20.80;99.90;;;;;;5071385;28;20015;-75
2021/12/06 03:17:09;;;;;;;;;;;20.80;99.90;;;;;;5071445;28;19920;-75
2021/12/06 03:19:36;;;;;;;;;;;20.70;99.90;;;;;;5070867;28;19955;-72
2021/12/06 03:22:04;;;;;;;;;;;20.70;99.90;;;;;;5071208;28;19920;-71
2021/12/06 03:24:31;;;;;;;;;;;20.70;99.90;;;;;;5071050;28;19925;-72
2021/12/06 03:26:57;;;;;;;;;;;20.80;99.90;;;;;;5070176;28;19912;-71
2021/12/06 03:29:24;;;;;;;;;;;20.80;99.90;;;;;;5071034;28;19939;-75
2021/12/06 03:31:51;;;;;;;;;;;20.70;99.90;;;;;;5071183;28;19917;-72
2021/12/06 03:34:18;;;;;;;;;;;20.60;99.90;;;;;;5071161;28;19920;-74
2021/12/06 03:36:45;;;;;;;;;;;20.50;99.90;;;;;;5070952;28;20003;-73
2021/12/06 03:39:20;;;;;;;;;;;20.50;99.90;;;;;;5071230;28;20313;-73
2021/12/06 03:41:48;;;;;;;;;;;20.50;99.90;;;;;;5070877;28;19920;-72
2021/12/06 03:44:15;;;;;;;;;;;20.40;99.90;;;;;;5070721;28;19923;-72
2021/12/06 03:46:42;;;;;;;;;;;20.30;99.90;;;;;;5070534;28;20370;-73
2021/12/06 03:49:10;;;;;;;;;;;20.30;99.90;;;;;;5070967;28;19912;-71
2021/12/06 03:51:38;;;;;;;;;;;20.30;99.90;;;;;;5070291;28;19916;-73
2021/12/06 03:54:04;;;;;;;;;;;20.30;99.90;;;;;;5070410;28;19924;-74
2021/12/06 03:56:31;;;;;;;;;;;20.30;99.90;;;;;;5070067;28;19916;-73
2021/12/06 03:58:58;;;;;;;;;;;20.20;99.90;;;;;;5072469;28;19946;-76
2021/12/06 04:01:24;;;;;;;;;;;20.30;99.90;;;;;;5073127;28;19913;-72
2021/12/06 04:03:51;;;;;;;;;;;20.30;99.90;;;;;;5074054;28;20431;-73
2021/12/06 04:06:18;;;;;;;;;;;20.20;99.90;;;;;;5073967;28;19921;-77
2021/12/06 04:08:44;;;;;;;;;;;20.20;99.90;;;;;;5074106;28;20001;-73
2021/12/06 04:11:13;;;;;;;;;;;20.20;99.90;;;;;;5073820;28;19913;-73
2021/12/06 04:13:39;;;;;;;;;;;20.10;99.90;;;;;;5074324;28;19938;-72
2021/12/06 04:16:06;;;;;;;;;;;20.10;99.90;;;;;;5073633;28;20953;-72
2021/12/06 04:18:33;;;;;;;;;;;20.10;99.90;;;;;;5074207;28;19912;-72
2021/12/06 04:20:59;;;;;;;;;;;20.10;99.90;;;;;;5073834;28;19916;-73
2021/12/06 04:23:26;;;;;;;;;;;20.20;99.90;;;;;;5074087;28;19919;-72
2021/12/06 04:25:53;;;;;;;;;;;20.20;99.90;;;;;;5062260;28;19912;-74
2021/12/06 04:28:20;;;;;;;;;;;20.20;99.90;;;;;;5073172;28;20007;-74
2021/12/06 04:30:47;;;;;;;;;;;20.30;99.90;;;;;;5074084;28;19916;-75
2021/12/06 04:33:14;;;;;;;;;;;20.30;99.90;;;;;;5073375;28;20287;-73
2021/12/06 04:35:41;;;;;;;;;;;20.40;99.90;;;;;;5073892;28;19920;-73
2021/12/06 04:38:09;;;;;;;;;;;20.30;99.90;;;;;;5073232;28;19951;-75
2021/12/06 04:40:36;;;;;;;;;;;20.40;99.90;;;;;;5073925;28;19917;-73
2021/12/06 04:43:02;;;;;;;;;;;20.30;99.90;;;;;;5073495;28;20294;-75
2021/12/06 04:45:29;;;;;;;;;;;20.20;99.90;;;;;;5074109;28;19913;-75
2021/12/06 04:47:56;;;;;;;;;;;20.20;99.90;;;;;;5073249;28;19919;-76
2021/12/06 04:50:25;;;;;;;;;;;20.20;99.90;;;;;;5072508;28;19913;-74
2021/12/06 04:52:56;;;;;;;;;;;20.30;99.90;;;;;;5073346;28;20394;-75
2021/12/06 04:55:29;;;;;;;;;;;20.30;99.90;;;;;;5061667;28;19943;-73
2021/12/06 04:57:56;;;;;;;;;;;20.50;99.90;;;;;;5072917;28;20014;-73
2021/12/06 05:00:23;;;;;;;;;;;20.60;99.90;;;;;;5061739;28;19912;-73
2021/12/06 05:02:50;;;;;;;;;;;20.60;99.90;;;;;;5073155;28;19913;-74
2021/12/06 05:05:27;;;;;;;;;;;20.70;99.90;;;;;;5072509;28;19958;-73
2021/12/06 05:07:57;;;;;;;;;;;20.60;99.90;;;;;;5072357;28;20003;-75
2021/12/06 05:10:24;;;;;;;;;;;20.60;99.90;;;;;;5054696;28;19933;-72
2021/12/06 05:12:51;;;;;;;;;;;20.60;99.90;;;;;;5067806;28;19915;-72
2021/12/06 05:15:18;;;;;;;;;;;20.60;99.90;;;;;;5055971;28;19921;-71
2021/12/06 05:17:45;;;;;;;;;;;20.60;99.90;;;;;;5066972;28;19909;-71
2021/12/06 05:20:12;;;;;;;;;;;20.60;99.90;;;;;;5059445;28;19913;-73
2021/12/06 05:22:39;;;;;;;;;;;20.60;99.90;;;;;;5073227;28;19909;-72
2021/12/06 05:25:06;;;;;;;;;;;20.70;99.90;;;;;;5068882;28;20042;-72
2021/12/06 05:27:33;;;;;;;;;;;20.70;99.90;;;;;;5055058;28;19916;-73
2021/12/06 05:30:03;;;;;;;;;;;20.70;99.90;;;;;;5070879;28;19961;-73
2021/12/06 05:32:34;;;;;;;;;;;20.70;99.90;;;;;;5072986;28;19909;-73
2021/12/06 05:35:05;;;;;;;;;;;20.60;99.90;;;;;;5072560;28;20026;-75
2021/12/06 05:37:32;;;;;;;;;;;20.50;99.90;;;;;;5072829;28;20421;-74
2021/12/06 05:39:59;;;;;;;;;;;20.50;99.90;;;;;;5072130;28;19919;-73
2021/12/06 05:42:26;;;;;;;;;;;20.50;99.90;;;;;;5072728;28;19909;-72
2021/12/06 05:44:53;;;;;;;;;;;20.50;99.90;;;;;;5072379;28;19924;-74
2021/12/06 05:47:19;;;;;;;;;;;20.50;99.90;;;;;;5072725;28;19908;-73
2021/12/06 05:49:46;;;;;;;;;;;20.50;99.90;;;;;;5071844;28;19958;-72
2021/12/06 05:52:13;;;;;;;;;;;20.40;99.90;;;;;;5070444;28;19912;-73
2021/12/06 05:54:40;;;;;;;;;;;20.40;99.90;;;;;;5070017;28;20354;-75
2021/12/06 05:57:07;;;;;;;;;;;20.50;99.90;;;;;;5070211;28;19977;-74
2021/12/06 05:59:34;;;;;;;;;;;20.50;99.90;;;;;;5070205;28;19966;-72
2021/12/06 06:02:01;;;;;;;;;;;20.50;99.90;;;;;;5069650;28;19912;-73
2021/12/06 06:04:27;;;;;;;;;;;20.50;99.90;;;;;;5070087;28;19909;-73
2021/12/06 06:06:54;;;;;;;;;;;20.40;99.90;;;;;;5070061;28;19924;-73
2021/12/06 06:09:21;;;;;;;;;;;20.40;99.90;;;;;;5070079;28;19928;-74
2021/12/06 06:11:48;;;;;;;;;;;20.30;99.90;;;;;;5069839;28;20393;-76
2021/12/06 06:14:15;;;;;;;;;;;20.30;99.90;;;;;;5070236;28;19924;-77
2021/12/06 06:16:51;;;;;;;;;;;20.30;99.90;;;;;;5067446;28;20011;-72
2021/12/06 06:19:23;;;;;;;;;;;20.20;99.90;;;;;;5051015;28;20223;-73
2021/12/06 06:21:50;;;;;;;;;;;20.20;99.90;;;;;;5067275;28;20016;-74
2021/12/06 06:24:17;;;;;;;;;;;20.20;99.90;;;;;;5070051;28;19919;-74
2021/12/06 06:26:44;;;;;;;;;;;20.10;99.90;;;;;;5068150;28;19923;-72
2021/12/06 06:29:11;;;;;;;;;;;20.20;99.90;;;;;;5069678;28;20359;-73
2021/12/06 06:31:39;;;;;;;;;;;20.20;99.90;;;;;;5069043;28;19921;-73
2021/12/06 06:34:06;;;;;;;;;;;20.20;99.90;;;;;;5069632;28;19974;-76
2021/12/06 06:36:32;;;;;;;;;;;20.30;99.90;;;;;;5069338;28;19931;-73
2021/12/06 06:38:59;;;;;;;;;;;20.30;99.90;;;;;;5069590;28;19912;-72
2021/12/06 06:41:30;;;;;;;;;;;20.30;99.90;;;;;;5069442;28;19932;-73
2021/12/06 06:43:57;;;;;;;;;;;20.30;99.90;;;;;;5057164;28;19963;-75
2021/12/06 06:46:23;;;;;;;;;;;20.30;99.90;;;;;;5069489;28;19942;-75
2021/12/06 06:48:50;;;;;;;;;;;20.30;99.90;;;;;;5069855;28;20393;-74
2021/12/06 06:51:17;;;;;;;;;;;20.30;99.90;;;;;;5069643;28;19912;-76
2021/12/06 06:53:43;;;;;;;;;;;20.30;99.90;;;;;;5069167;28;19916;-73
2021/12/06 06:56:10;;;;;;;;;;;20.20;99.90;;;;;;5069152;28;19920;-73
2021/12/06 06:58:37;;;;;;;;;;;20.20;99.90;;;;;;5068785;28;19920;-73
2021/12/06 07:01:04;;;;;;;;;;;20.20;99.90;;;;;;5069650;28;19993;-76
2021/12/06 07:03:31;;;;;;;;;;;20.20;99.90;;;;;;5066506;28;20454;-74
2021/12/06 07:06:02;;;;;;;;;;;20.20;99.90;;;;;;5050974;28;20317;-73
2021/12/06 07:08:29;;;;;;;;;;;20.20;99.90;;;;;;5054092;28;19969;-73
2021/12/06 07:10:56;;;;;;;;;;;20.10;99.90;;;;;;5069124;28;20062;-75
2021/12/06 07:13:26;;;;;;;;;;;20.10;99.90;;;;;;5056976;28;19928;-75
2021/12/06 07:15:53;;;;;;;;;;;20.10;99.90;;;;;;5061146;28;19920;-73
2021/12/06 07:18:20;;;;;;;;;;;20.10;99.90;;;;;;5052879;28;20391;-72
2021/12/06 07:20:47;;;;;;;;;;;20.20;99.90;;;;;;5057953;28;20317;-73
2021/12/06 07:23:13;;;;;;;;;;;20.30;99.90;;;;;;5068170;28;20467;-73
2021/12/06 07:25:40;;;;;;;;;;;20.30;99.90;;;;;;5068882;28;20480;-77
2021/12/06 07:28:07;;;;;;;;;;;20.30;99.90;;;;;;5066226;28;19917;-74
2021/12/06 07:30:34;;;;;;;;;;;20.30;99.90;;;;;;5068957;28;19921;-72
2021/12/06 07:33:01;;;;;;;;;;;20.20;99.90;;;;;;5070838;28;19917;-74
2021/12/06 07:35:29;;;;;;;;;;;20.30;99.90;;;;;;5072529;28;20357;-73
2021/12/06 07:37:56;;;;;;;;;;;20.30;99.90;;;;;;5072314;28;20030;-75
2021/12/06 07:40:23;;;;;;;;;;;20.20;99.90;;;;;;5072689;28;19916;-75
2021/12/06 07:42:50;;;;;;;;;;;20.20;99.90;;;;;;5072984;28;20363;-76
2021/12/06 07:45:18;;;;;;;;;;;20.20;99.90;;;;;;5072468;28;19913;-76
2021/12/06 07:47:45;;;;;;;;;;;20.20;99.90;;;;;;5072890;28;19916;-72
2021/12/06 07:50:15;;;;;;;;;;;20.10;99.90;;;;;;5072032;28;19935;-76
2021/12/06 07:52:42;;;;;;;;;;;20.00;99.90;;;;;;5105158;28;19917;-74
2021/12/06 07:55:10;;;;;;;;;;;20.00;99.90;;;;;;5072052;28;20602;-75
2021/12/06 07:57:37;;;;;;;;;;;19.90;99.90;;;;;;5072568;28;20013;-75
2021/12/06 08:00:10;;;;;;;;;;;19.90;99.90;;;;;;5072103;28;19927;-77
2021/12/06 08:02:37;;;;;;;;;;;19.80;99.90;;;;;;5062008;28;19966;-75
2021/12/06 08:05:49;;;;;;;;;;;19.80;99.90;;;;;;5069993;28;19916;-73
2021/12/06 08:07:51;;;;;;;;;;;19.70;99.90;;;;;;5064658;28;19952;-72
2021/12/06 08:10:18;;;;;;;;;;;19.70;99.90;;;;;;5073761;28;19928;-73
2021/12/06 08:12:44;;;;;;;;;;;19.60;99.90;;;;;;5074400;28;19916;-72
2021/12/06 08:15:11;;;;;;;;;;;19.60;99.90;;;;;;5073733;28;19942;-75
2021/12/06 08:17:38;;;;;;;;;;;19.60;99.90;;;;;;5074347;28;19913;-73
2021/12/06 08:20:06;;;;;;;;;;;19.60;99.90;;;;;;5072793;28;19921;-71
2021/12/06 08:22:32;;;;;;;;;;;19.50;99.90;;;;;;5073920;28;19916;-73
2021/12/06 08:24:59;;;;;;;;;;;19.50;99.90;;;;;;5073541;28;19958;-72
2021/12/06 08:27:26;;;;;;;;;;;19.60;99.90;;;;;;5062007;28;20018;-72
2021/12/06 08:29:52;;;;;;;;;;;19.50;99.90;;;;;;5073482;28;19916;-73
2021/12/06 08:32:19;;;;;;;;;;;19.50;99.90;;;;;;5073846;28;20382;-73
2021/12/06 08:34:46;;;;;;;;;;;19.50;99.90;;;;;;5073221;28;20425;-73
2021/12/06 08:37:13;;;;;;;;;;;19.50;99.90;;;;;;5072694;28;19912;-75
2021/12/06 08:39:39;;;;;;;;;;;19.60;99.90;;;;;;5073965;28;19912;-76
2021/12/06 08:42:07;;;;;;;;;;;19.60;99.90;;;;;;5073420;28;19917;-72
2021/12/06 08:44:34;;;;;;;;;;;19.50;99.90;;;;;;5073058;28;20374;-72
2021/12/06 08:47:02;;;;;;;;;;;19.50;99.90;;;;;;5073691;28;20562;-72
2021/12/06 08:49:29;;;;;;;;;;;19.50;99.90;;;;;;5073926;28;19912;-75
2021/12/06 08:51:57;;;;;;;;;;;19.50;99.90;;;;;;5073298;28;19928;-72
2021/12/06 08:54:27;;;;;;;;;;;19.50;99.90;;;;;;5073690;28;19924;-75
2021/12/06 08:56:54;;;;;;;;;;;19.50;99.90;;;;;;5070462;28;19916;-74
2021/12/06 08:59:21;;;;;;;;;;;19.50;99.90;;;;;;5063004;28;19970;-74
2021/12/06 09:01:48;;;;;;;;;;;19.50;99.90;;;;;;5061141;28;19912;-76
2021/12/06 09:04:15;;;;;;;;;;;19.50;99.90;;;;;;5055714;28;19916;-73
2021/12/06 09:06:44;;;;;;;;;;;19.50;99.90;;;;;;5055819;28;19963;-73
2021/12/06 09:09:12;;;;;;;;;;;19.40;99.90;;;;;;5073143;28;19921;-76
2021/12/06 09:11:40;;;;;;;;;;;19.40;99.90;;;;;;5073268;28;19912;-72
2021/12/06 09:14:08;;;;;;;;;;;19.40;99.90;;;;;;5072963;28;19965;-72
2021/12/06 09:16:36;;;;;;;;;;;19.40;99.90;;;;;;5073473;28;19924;-74
2021/12/06 09:19:03;;;;;;;;;;;19.40;99.90;;;;;;5072747;28;19912;-73
2021/12/06 09:21:30;;;;;;;;;;;19.40;99.90;;;;;;5073379;28;19920;-73
2021/12/06 09:24:00;;;;;;;;;;;19.40;99.90;;;;;;5072465;28;19992;-73
2021/12/06 09:26:30;;;;;;;;;;;19.40;99.90;;;;;;5073535;28;19921;-73
2021/12/06 09:28:57;;;;;;;;;;;19.40;99.90;;;;;;5073096;28;20015;-76
2021/12/06 09:31:24;;;;;;;;;;;19.30;99.90;;;;;;5073250;28;19943;-73
2021/12/06 09:33:51;;;;;;;;;;;19.40;99.90;;;;;;5072841;28;19912;-73
2021/12/06 09:36:20;;;;;;;;;;;19.30;99.90;;;;;;5073170;28;20419;-74
2021/12/06 09:38:47;;;;;;;;;;;19.30;99.90;;;;;;5072227;28;19919;-73
2021/12/06 09:41:19;;;;;;;;;;;19.30;99.90;;;;;;5072856;28;19993;-73
2021/12/06 09:43:46;;;;;;;;;;;19.30;99.90;;;;;;5072200;28;20003;-72
2021/12/06 09:46:13;;;;;;;;;;;19.30;99.90;;;;;;5072742;28;19912;-73
2021/12/06 09:48:43;;;;;;;;;;;19.30;99.90;;;;;;5072168;28;19919;-74
2021/12/06 09:51:12;;;;;;;;;;;19.30;99.90;;;;;;5061939;28;19913;-74
2021/12/06 09:53:40;;;;;;;;;;;19.20;99.90;;;;;;5072059;28;19916;-73
2021/12/06 09:56:09;;;;;;;;;;;19.20;99.90;;;;;;5072268;28;19927;-73
2021/12/06 09:58:36;;;;;;;;;;;19.20;99.90;;;;;;5071726;28;19913;-73
2021/12/06 10:01:31;;;;;;;;;;;19.20;99.90;;;;;;5071763;28;19912;-73
2021/12/06 10:03:59;;;;;;;;;;;19.20;99.90;;;;;;5055630;28;19912;-75
2021/12/06 10:06:27;;;;;;;;;;;19.20;99.90;;;;;;5072284;28;19913;-74
2021/12/06 10:08:55;;;;;;;;;;;19.10;99.90;;;;;;5071442;28;20393;-73
2021/12/06 10:11:23;;;;;;;;;;;19.10;99.90;;;;;;5072245;28;20382;-74
2021/12/06 10:13:50;;;;;;;;;;;19.10;99.90;;;;;;5071174;28;19946;-75
2021/12/06 10:16:18;;;;;;;;;;;19.10;99.90;;;;;;5072029;28;19921;-74
2021/12/06 10:18:45;;;;;;;;;;;19.10;99.90;;;;;;5071449;28;19920;-74
2021/12/06 10:21:12;;;;;;;;;;;19.10;99.90;;;;;;5071921;28;20291;-75
2021/12/06 10:23:39;;;;;;;;;;;19.10;99.90;;;;;;5071255;28;19912;-73
2021/12/06 10:26:07;;;;;;;;;;;19.10;99.90;;;;;;5071511;28;20068;-73
2021/12/06 10:28:35;;;;;;;;;;;19.10;99.90;;;;;;5071399;28;20454;-73
2021/12/06 10:31:03;;;;;;;;;;;19.10;99.90;;;;;;5071512;28;19943;-72
2021/12/06 10:33:32;;;;;;;;;;;19.10;99.90;;;;;;5071815;28;19917;-71
2021/12/06 10:36:00;;;;;;;;;;;19.10;99.90;;;;;;5071125;28;19921;-72
2021/12/06 10:38:33;;;;;;;;;;;19.10;99.90;;;;;;5071316;28;20007;-72
2021/12/06 10:41:01;;;;;;;;;;;19.10;99.90;;;;;;5071605;28;19912;-73
2021/12/06 10:43:28;;;;;;;;;;;19.10;99.90;;;;;;5071435;28;19919;-73
2021/12/06 10:45:56;;;;;;;;;;;19.20;99.90;;;;;;5070789;28;19921;-73
2021/12/06 10:48:27;;;;;;;;;;;19.10;99.90;;;;;;5071542;28;19912;-74
2021/12/06 10:50:54;;;;;;;;;;;19.10;99.90;;;;;;5070914;28;20025;-73
2021/12/06 10:53:22;;;;;;;;;;;19.20;99.90;;;;;;5071429;28;19912;-73
2021/12/06 10:55:51;;;;;;;;;;;19.20;99.90;;;;;;5070725;28;19939;-72
2021/12/06 10:58:19;;;;;;;;;;;19.20;99.90;;;;;;5071127;28;20375;-72
2021/12/06 11:00:51;;;;;;;;;;;19.20;99.90;;;;;;5070872;28;20374;-72
2021/12/06 11:03:40;;;;;;;;;;;19.20;99.90;;;;;;5071397;28;19935;-73
2021/12/06 11:06:10;;;;;;;;;;;19.10;99.90;;;;;;5071045;28;19916;-74
2021/12/06 11:08:37;;;;;;;;;;;19.10;99.90;;;;;;5070524;28;19928;-73
2021/12/06 11:11:10;;;;;;;;;;;19.10;99.90;;;;;;5070902;28;19923;-72
2021/12/06 11:13:39;;;;;;;;;;;19.10;99.90;;;;;;5071056;28;20373;-72
2021/12/06 11:16:06;;;;;;;;;;;19.10;99.90;;;;;;5070592;28;20011;-73
2021/12/06 11:18:36;;;;;;;;;;;19.10;99.90;;;;;;5071267;28;20360;-73
2021/12/06 11:21:05;;;;;;;;;;;19.10;99.90;;;;;;5070937;28;19916;-72
2021/12/06 11:23:32;;;;;;;;;;;19.00;99.90;;;;;;5071168;28;19916;-73
2021/12/06 11:26:01;;;;;;;;;;;19.00;99.90;;;;;;5070327;28;19999;-72
2021/12/06 11:28:32;;;;;;;;;;;19.00;99.90;;;;;;5070689;28;19955;-73
2021/12/06 11:31:03;;;;;;;;;;;19.00;99.90;;;;;;5070550;28;19913;-73
2021/12/06 11:33:32;;;;;;;;;;;19.00;99.90;;;;;;5070977;28;19970;-73
2021/12/06 11:36:00;;;;;;;;;;;19.00;99.90;;;;;;5070262;28;19920;-76
2021/12/06 11:38:30;;;;;;;;;;;19.00;99.90;;;;;;5070739;28;19909;-71
2021/12/06 11:40:58;;;;;;;;;;;19.00;99.90;;;;;;5070420;28;19927;-74
2021/12/06 11:43:25;;;;;;;;;;;19.10;99.90;;;;;;5069779;28;20272;-74
2021/12/06 11:45:55;;;;;;;;;;;19.10;99.90;;;;;;5070252;28;20382;-73
2021/12/06 11:48:25;;;;;;;;;;;19.10;99.90;;;;;;5070970;28;19917;-73
2021/12/06 11:50:53;;;;;;;;;;;19.10;99.90;;;;;;5070608;28;19955;-73
2021/12/06 11:53:21;;;;;;;;;;;19.10;99.90;;;;;;5063109;28;19995;-75
2021/12/06 11:55:51;;;;;;;;;;;19.10;99.90;;;;;;5070291;28;19921;-73
2021/12/06 11:58:26;;;;;;;;;;;19.00;99.90;;;;;;5070805;28;19915;-73
2021/12/06 12:01:04;;;;;;;;;;;19.00;99.90;;;;;;5102576;28;20248;-73
2021/12/06 12:03:32;;;;;;;;;;;19.00;99.90;;;;;;5070208;28;19916;-74
2021/12/06 12:05:59;;;;;;;;;;;19.00;99.90;;;;;;5070130;28;19951;-74
2021/12/06 12:08:30;;;;;;;;;;;19.00;99.90;;;;;;5070421;28;19916;-73
2021/12/06 12:10:57;;;;;;;;;;;19.00;99.90;;;;;;5070150;28;19938;-73
2021/12/06 12:13:28;;;;;;;;;;;19.00;99.90;;;;;;5070866;28;20337;-73
2021/12/06 12:15:56;;;;;;;;;;;19.00;99.90;;;;;;5070150;28;19931;-73
2021/12/06 12:18:23;;;;;;;;;;;19.00;99.90;;;;;;5070191;28;20427;-74
2021/12/06 12:20:50;;;;;;;;;;;18.90;99.90;;;;;;5073042;28;19947;-75
2021/12/06 12:23:17;;;;;;;;;;;18.90;99.90;;;;;;5074379;28;19970;-75
2021/12/06 12:25:52;;;;;;;;;;;18.90;99.90;;;;;;5073759;28;20691;-75
2021/12/06 12:28:26;;;;;;;;;;;18.90;99.90;;;;;;5074472;28;19919;-72
2021/12/06 12:30:54;;;;;;;;;;;18.90;99.90;;;;;;5072223;28;19913;-74
2021/12/06 12:33:23;;;;;;;;;;;18.90;99.90;;;;;;5073701;28;20386;-73
2021/12/06 12:35:51;;;;;;;;;;;18.90;99.90;;;;;;5073059;28;20008;-71
2021/12/06 12:38:28;;;;;;;;;;;18.90;99.90;;;;;;5074092;28;20603;-73
2021/12/06 12:40:57;;;;;;;;;;;18.90;99.90;;;;;;5073745;28;19924;-72
2021/12/06 12:43:32;;;;;;;;;;;18.90;99.90;;;;;;5074204;28;19923;-75
2021/12/06 12:46:03;;;;;;;;;;;18.90;99.90;;;;;;5073410;28;19913;-75
2021/12/06 12:48:43;;;;;;;;;;;18.90;99.90;;;;;;5073955;28;19930;-76
2021/12/06 12:51:11;;;;;;;;;;;18.90;99.90;;;;;;5073245;28;19919;-75
2021/12/06 12:53:44;;;;;;;;;;;18.90;99.90;;;;;;5073839;28;19935;-76
2021/12/06 12:56:18;;;;;;;;;;;18.90;99.90;;;;;;5073144;28;19920;-76
2021/12/06 12:58:44;;;;;;;;;;;19.00;99.90;;;;;;5073450;28;19916;-76
2021/12/06 13:01:13;;;;;;;;;;;19.00;99.90;;;;;;5073303;28;19912;-75
2021/12/06 13:03:40;;;;;;;;;;;18.90;99.90;;;;;;5073631;28;19918;-76
2021/12/06 13:06:16;;;;;;;;;;;19.00;99.90;;;;;;5072666;28;20355;-76
2021/12/06 13:08:43;;;;;;;;;;;19.00;99.90;;;;;;5073372;28;20436;-76
2021/12/06 13:11:10;;;;;;;;;;;18.90;99.90;;;;;;5072865;28;20370;-76
2021/12/06 13:13:44;;;;;;;;;;;19.00;99.90;;;;;;5073292;28;19912;-76
2021/12/06 13:16:32;;;;;;;;;;;19.00;99.90;;;;;;5072862;28;19956;-77
2021/12/06 13:19:12;;;;;;;;;;;19.00;99.90;;;;;;5073094;28;19920;-76
2021/12/06 13:21:44;;;;;;;;;;;19.00;99.90;;;;;;5073186;28;19974;-76
2021/12/06 13:24:16;;;;;;;;;;;19.00;99.90;;;;;;5071225;28;19920;-76
2021/12/06 13:26:47;;;;;;;;;;;18.90;99.90;;;;;;5073171;28;19912;-76
2021/12/06 13:29:17;;;;;;;;;;;19.00;99.90;;;;;;5072518;28;19924;-76
2021/12/06 13:31:44;;;;;;;;;;;19.00;99.90;;;;;;5072657;28;20012;-75
2021/12/06 13:34:23;;;;;;;;;;;18.90;99.90;;;;;;5072127;28;19921;-75
2021/12/06 13:36:57;;;;;;;;;;;18.90;99.90;;;;;;5072881;28;19943;-76
2021/12/06 13:39:35;;;;;;;;;;;18.90;99.90;;;;;;5072376;28;20150;-76
2021/12/06 13:42:03;;;;;;;;;;;18.90;99.90;;;;;;5072821;28;19913;-75
2021/12/06 13:44:42;;;;;;;;;;;18.90;99.90;;;;;;5072249;28;19964;-76
2021/12/06 13:47:13;;;;;;;;;;;18.90;99.90;;;;;;5072767;28;19922;-76
2021/12/06 13:49:51;;;;;;;;;;;18.90;99.90;;;;;;5071918;28;19913;-76
2021/12/06 13:52:28;;;;;;;;;;;18.90;99.90;;;;;;5072196;28;20011;-76
2021/12/06 13:54:55;;;;;;;;;;;18.90;99.90;;;;;;5072457;28;20275;-76
2021/12/06 13:57:21;;;;;;;;;;;18.90;99.90;;;;;;5071790;28;19916;-77
2021/12/06 13:59:55;;;;;;;;;;;19.00;99.90;;;;;;5071793;28;19916;-76
2021/12/06 14:02:27;;;;;;;;;;;19.00;99.90;;;;;;5072093;28;20408;-76
2021/12/06 14:04:55;;;;;;;;;;;19.00;99.90;;;;;;5072298;28;19935;-76
2021/12/06 14:07:23;;;;;;;;;;;19.00;99.90;;;;;;5071755;28;19955;-75
2021/12/06 14:09:52;;;;;;;;;;;19.00;99.90;;;;;;5071761;28;19931;-76
2021/12/06 14:12:19;;;;;;;;;;;19.00;99.90;;;;;;5072020;28;19912;-76
2021/12/06 14:14:49;;;;;;;;;;;18.90;99.90;;;;;;5071797;28;20435;-76
2021/12/06 14:17:16;;;;;;;;;;;18.90;99.90;;;;;;5072032;28;20406;-75
2021/12/06 14:19:43;;;;;;;;;;;18.90;99.90;;;;;;5071709;28;19919;-76
2021/12/06 14:22:11;;;;;;;;;;;18.90;99.90;;;;;;5071891;28;19912;-76
2021/12/06 14:24:39;;;;;;;;;;;18.80;99.90;;;;;;5071271;28;19920;-77
2021/12/06 14:27:06;;;;;;;;;;;18.90;99.90;;;;;;5071955;28;19916;-75
2021/12/06 14:29:33;;;;;;;;;;;18.80;99.90;;;;;;5070066;28;20382;-74
2021/12/06 14:32:01;;;;;;;;;;;18.80;99.90;;;;;;5071698;28;19912;-77
2021/12/06 14:34:30;;;;;;;;;;;18.80;99.90;;;;;;5071203;28;20329;-76
2021/12/06 14:36:56;;;;;;;;;;;18.80;99.90;;;;;;5071909;28;19912;-76
2021/12/06 14:39:25;;;;;;;;;;;18.80;99.90;;;;;;5071294;28;19920;-76